createdAt,value
2022-10-18T00:00:07.851Z,84.30
2022-10-18T00:02:38.142Z,84.30
2022-10-18T00:05:05.629Z,84.30
2022-10-18T00:07:32.924Z,84.30
2022-10-18T00:10:00.048Z,84.30
2022-10-18T00:12:26.990Z,84.30
2022-10-18T00:14:54.008Z,84.30
2022-10-18T00:17:21.013Z,84.30
2022-10-18T00:19:49.227Z,84.30
2022-10-18T00:22:16.308Z,84.30
2022-10-18T00:24:43.307Z,84.30
2022-10-18T00:27:10.272Z,84.30
2022-10-18T00:29:37.262Z,84.30
2022-10-18T00:32:04.459Z,84.20
2022-10-18T00:34:31.596Z,84.20
2022-10-18T00:36:58.510Z,84.20
2022-10-18T00:39:25.487Z,84.20
2022-10-18T00:41:52.752Z,84.20
2022-10-18T00:44:25.810Z,84.10
2022-10-18T00:46:57.205Z,84.10
2022-10-18T00:49:27.927Z,84.10
2022-10-18T00:52:13.019Z,84.10
2022-10-18T00:54:43.017Z,84.10
2022-10-18T00:57:11.745Z,84.00
2022-10-18T00:59:39.384Z,83.90
2022-10-18T01:02:07.473Z,83.80
2022-10-18T01:04:34.878Z,83.90
2022-10-18T01:07:13.480Z,83.90
2022-10-18T01:10:08.268Z,84.00
2022-10-18T01:12:50.327Z,84.00
2022-10-18T01:15:31.692Z,84.10
2022-10-18T01:18:17.206Z,84.10
2022-10-18T01:20:53.730Z,84.20
2022-10-18T01:23:59.233Z,84.20
2022-10-18T01:26:41.220Z,84.30
2022-10-18T01:29:20.660Z,84.40
2022-10-18T01:32:01.307Z,84.40
2022-10-18T01:34:33.944Z,84.50
2022-10-18T01:37:04.649Z,84.60
2022-10-18T01:39:36.464Z,84.70
2022-10-18T01:42:07.673Z,84.70
2022-10-18T01:44:36.153Z,84.80
2022-10-18T01:47:06.817Z,84.80
2022-10-18T01:49:34.476Z,84.80
2022-10-18T01:52:01.652Z,84.80
2022-10-18T01:54:34.225Z,84.80
2022-10-18T01:57:07.219Z,84.90
2022-10-18T01:59:52.507Z,84.90
2022-10-18T02:02:45.575Z,84.90
2022-10-18T02:05:15.233Z,84.90
2022-10-18T02:07:42.134Z,85.00
2022-10-18T02:12:49.381Z,85.00
2022-10-18T02:15:21.026Z,85.00
2022-10-18T02:17:48.004Z,85.00
2022-10-18T02:20:19.705Z,85.00
2022-10-18T02:22:49.032Z,85.00
2022-10-18T02:25:23.586Z,85.00
2022-10-18T02:27:55.068Z,85.00
2022-10-18T02:30:30.530Z,85.00
2022-10-18T02:33:19.800Z,85.00
2022-10-18T02:35:54.720Z,84.90
2022-10-18T02:38:25.034Z,84.90
2022-10-18T02:40:52.227Z,84.90
2022-10-18T02:43:19.138Z,85.00
2022-10-18T02:45:46.190Z,85.00
2022-10-18T02:48:13.093Z,85.00
2022-10-18T02:50:40.280Z,85.10
2022-10-18T02:53:07.280Z,85.10
2022-10-18T02:55:34.528Z,85.10
2022-10-18T02:58:01.477Z,85.10
2022-10-18T03:00:28.452Z,85.10
2022-10-18T03:02:55.435Z,85.10
2022-10-18T03:05:22.403Z,85.10
2022-10-18T03:07:49.335Z,85.00
2022-10-18T03:10:16.331Z,85.00
2022-10-18T03:12:43.238Z,85.00
2022-10-18T03:15:10.492Z,85.10
2022-10-18T03:17:37.402Z,85.00
2022-10-18T03:20:04.667Z,85.10
2022-10-18T03:22:31.589Z,85.00
2022-10-18T03:24:58.519Z,85.00
2022-10-18T03:27:25.492Z,85.10
2022-10-18T03:29:52.586Z,85.00
2022-10-18T03:32:19.601Z,85.00
2022-10-18T03:34:46.572Z,85.00
2022-10-18T03:37:13.637Z,85.00
2022-10-18T03:39:40.606Z,85.00
2022-10-18T03:42:07.496Z,85.00
2022-10-18T03:44:34.451Z,85.10
2022-10-18T03:47:01.348Z,85.10
2022-10-18T03:49:28.346Z,85.10
2022-10-18T03:51:55.278Z,85.10
2022-10-18T03:54:22.232Z,85.10
2022-10-18T03:56:49.116Z,85.20
2022-10-18T03:59:17.189Z,85.20
2022-10-18T04:01:44.173Z,85.30
2022-10-18T04:04:11.182Z,85.30
2022-10-18T04:06:38.125Z,85.30
2022-10-18T04:09:07.877Z,85.30
2022-10-18T04:11:37.151Z,85.30
2022-10-18T04:14:04.268Z,85.40
2022-10-18T04:16:31.243Z,85.40
2022-10-18T04:18:58.210Z,85.40
2022-10-18T04:21:25.227Z,85.40
2022-10-18T04:23:52.191Z,85.40
2022-10-18T04:26:19.347Z,85.40
2022-10-18T04:28:46.272Z,85.40
2022-10-18T04:31:13.314Z,85.40
2022-10-18T04:33:40.410Z,85.30
2022-10-18T04:36:07.692Z,85.40
2022-10-18T04:38:34.827Z,85.30
2022-10-18T04:41:01.817Z,85.30
2022-10-18T04:43:28.886Z,85.30
2022-10-18T04:45:55.928Z,85.40
2022-10-18T04:48:22.933Z,85.40
2022-10-18T04:50:51.157Z,85.50
2022-10-18T04:53:18.894Z,85.50
2022-10-18T04:55:49.453Z,85.50
2022-10-18T04:58:19.899Z,85.60
2022-10-18T05:00:47.839Z,85.70
2022-10-18T05:03:14.943Z,85.70
2022-10-18T05:06:00.910Z,85.70
2022-10-18T05:08:29.752Z,85.80
2022-10-18T05:10:56.835Z,85.80
2022-10-18T05:13:23.892Z,85.80
2022-10-18T05:15:50.822Z,85.90
2022-10-18T05:18:18.114Z,85.90
2022-10-18T05:20:45.028Z,85.90
2022-10-18T05:23:12.054Z,85.90
2022-10-18T05:25:40.291Z,86.00
2022-10-18T05:28:10.950Z,86.00
2022-10-18T05:30:43.060Z,86.00
2022-10-18T05:33:10.256Z,86.00
2022-10-18T05:35:37.323Z,86.00
2022-10-18T05:38:07.510Z,85.90
2022-10-18T05:40:34.680Z,86.00
2022-10-18T05:43:01.558Z,85.90
2022-10-18T05:45:28.699Z,85.90
2022-10-18T05:47:55.607Z,85.90
2022-10-18T05:50:22.618Z,85.80
2022-10-18T05:52:49.559Z,85.80
2022-10-18T05:55:16.572Z,85.80
2022-10-18T05:57:43.447Z,85.80
2022-10-18T06:00:11.316Z,85.80
2022-10-18T06:02:42.102Z,85.80
2022-10-18T06:05:09.274Z,85.80
2022-10-18T06:07:36.407Z,85.80
2022-10-18T06:10:03.528Z,85.80
2022-10-18T06:12:30.466Z,85.80
2022-10-18T06:14:57.418Z,85.80
2022-10-18T06:17:25.915Z,85.80
2022-10-18T06:19:54.740Z,85.80
2022-10-18T06:22:21.679Z,85.80
2022-10-18T06:24:48.673Z,85.90
2022-10-18T06:27:15.643Z,85.80
2022-10-18T06:29:42.920Z,85.80
2022-10-18T06:32:09.875Z,85.80
2022-10-18T06:34:36.869Z,85.80
2022-10-18T06:37:03.783Z,85.80
2022-10-18T06:39:30.733Z,85.80
2022-10-18T06:41:57.696Z,85.80
2022-10-18T06:44:24.807Z,85.80
2022-10-18T06:46:53.497Z,85.80
2022-10-18T06:49:20.669Z,85.80
2022-10-18T06:51:47.623Z,85.90
2022-10-18T06:54:19.103Z,85.90
2022-10-18T06:56:46.739Z,86.00
2022-10-18T06:59:13.942Z,86.00
2022-10-18T07:01:40.903Z,86.00
2022-10-18T07:04:07.942Z,86.10
2022-10-18T07:06:34.914Z,86.10
2022-10-18T07:09:03.164Z,86.10
2022-10-18T07:11:30.154Z,86.10
2022-10-18T07:14:04.819Z,86.10
2022-10-18T07:16:33.240Z,86.20
2022-10-18T07:19:00.250Z,86.20
2022-10-18T07:21:27.689Z,86.20
2022-10-18T07:23:54.957Z,86.30
2022-10-18T07:26:29.924Z,86.30
2022-10-18T07:29:01.545Z,86.40
2022-10-18T07:31:29.441Z,86.40
2022-10-18T07:33:57.534Z,86.40
2022-10-18T07:36:25.671Z,86.40
2022-10-18T07:38:52.978Z,86.40
2022-10-18T07:41:20.660Z,86.50
2022-10-18T07:43:51.070Z,86.50
2022-10-18T07:46:19.591Z,86.50
2022-10-18T07:48:46.601Z,86.50
2022-10-18T07:51:14.072Z,86.60
2022-10-18T07:53:41.292Z,86.60
2022-10-18T07:56:17.344Z,86.60
2022-10-18T07:58:45.392Z,86.60
2022-10-18T08:01:13.839Z,86.60
2022-10-18T08:03:41.857Z,86.60
2022-10-18T08:06:11.077Z,86.60
2022-10-18T08:08:39.704Z,86.60
2022-10-18T08:11:10.414Z,86.50
2022-10-18T08:13:37.375Z,86.50
2022-10-18T08:16:10.000Z,86.50
2022-10-18T08:18:37.655Z,86.40
2022-10-18T08:21:06.780Z,86.40
2022-10-18T08:23:34.207Z,86.40
2022-10-18T08:26:02.900Z,86.40
2022-10-18T08:28:30.012Z,86.30
2022-10-18T08:30:57.164Z,86.30
2022-10-18T08:33:24.124Z,86.20
2022-10-18T08:36:02.172Z,86.20
2022-10-18T08:38:33.471Z,86.20
2022-10-18T08:41:51.908Z,86.20
2022-10-18T08:44:42.060Z,86.30
2022-10-18T08:47:19.682Z,86.30
2022-10-18T08:49:49.723Z,86.20
2022-10-18T08:52:37.208Z,86.10
2022-10-18T08:55:16.040Z,86.00
2022-10-18T08:57:43.644Z,85.90
2022-10-18T09:00:19.050Z,85.90
2022-10-18T09:02:57.770Z,85.80
2022-10-18T09:05:24.687Z,85.80
2022-10-18T09:08:24.246Z,85.80
2022-10-18T09:11:12.056Z,85.60
2022-10-18T09:14:03.564Z,85.60
2022-10-18T09:16:35.987Z,85.50
2022-10-18T09:19:33.630Z,85.40
2022-10-18T09:22:14.537Z,85.30
2022-10-18T09:24:52.623Z,85.30
2022-10-18T09:27:22.340Z,85.30
2022-10-18T09:30:04.053Z,85.30
2022-10-18T09:32:34.261Z,85.20
2022-10-18T09:35:23.864Z,85.20
2022-10-18T09:37:55.771Z,85.20
2022-10-18T09:40:29.127Z,85.10
2022-10-18T09:43:13.042Z,85.10
2022-10-18T09:45:43.084Z,85.20
2022-10-18T09:48:21.983Z,85.20
2022-10-18T09:51:12.214Z,85.20
2022-10-18T09:53:59.379Z,85.30
2022-10-18T09:56:41.777Z,85.20
2022-10-18T09:59:29.338Z,84.90
2022-10-18T10:01:56.525Z,84.70
2022-10-18T10:04:23.607Z,84.50
2022-10-18T10:06:52.960Z,84.30
2022-10-18T10:09:27.143Z,84.10
2022-10-18T10:11:55.548Z,83.90
2022-10-18T10:14:26.648Z,83.70
2022-10-18T10:17:02.526Z,83.50
2022-10-18T10:19:34.775Z,83.40
2022-10-18T10:22:08.949Z,83.10
2022-10-18T10:24:53.599Z,82.80
2022-10-18T10:27:28.959Z,82.70
2022-10-18T10:30:01.514Z,82.60
2022-10-18T10:32:44.432Z,82.40
2022-10-18T10:35:56.104Z,82.00
2022-10-18T10:38:25.217Z,81.90
2022-10-18T10:40:52.610Z,81.90
2022-10-18T10:43:39.745Z,81.80
2022-10-18T10:46:19.214Z,81.70
2022-10-18T10:49:08.434Z,81.50
2022-10-18T10:51:41.349Z,81.30
2022-10-18T10:54:15.138Z,81.20
2022-10-18T10:57:00.291Z,81.20
2022-10-18T10:59:31.850Z,81.30
2022-10-18T11:02:35.556Z,81.40
2022-10-18T11:05:25.529Z,81.20
2022-10-18T11:08:12.160Z,81.10
2022-10-18T11:10:56.176Z,80.90
2022-10-18T11:13:28.707Z,80.80
2022-10-18T11:16:04.759Z,80.70
2022-10-18T11:18:37.346Z,80.60
2022-10-18T11:21:33.956Z,80.50
2022-10-18T11:24:03.002Z,80.40
2022-10-18T11:27:07.787Z,80.20
2022-10-18T11:29:59.253Z,80.10
2022-10-18T11:32:41.671Z,80.30
2022-10-18T11:35:27.208Z,80.30
2022-10-18T11:38:18.806Z,80.10
2022-10-18T11:40:52.466Z,80.00
2022-10-18T11:44:01.289Z,79.50
2022-10-18T11:46:42.581Z,79.20
2022-10-18T11:49:21.802Z,78.70
2022-10-18T11:52:08.465Z,78.50
2022-10-18T11:54:51.618Z,78.00
2022-10-18T11:57:50.696Z,76.60
2022-10-18T12:00:28.891Z,76.20
2022-10-18T12:03:14.265Z,75.50
2022-10-18T12:05:45.750Z,75.60
2022-10-18T12:08:18.388Z,75.50
2022-10-18T12:11:04.540Z,75.50
2022-10-18T12:13:37.389Z,75.10
2022-10-18T12:16:07.005Z,74.20
2022-10-18T12:18:36.156Z,73.90
2022-10-18T12:21:05.320Z,74.10
2022-10-18T12:23:36.733Z,73.40
2022-10-18T12:26:06.739Z,73.70
2022-10-18T12:29:02.434Z,73.40
2022-10-18T12:31:39.144Z,72.60
2022-10-18T12:34:33.717Z,72.30
2022-10-18T12:37:22.291Z,71.90
2022-10-18T12:40:15.668Z,71.70
2022-10-18T12:42:48.548Z,71.70
2022-10-18T12:45:33.134Z,70.90
2022-10-18T12:48:06.848Z,70.60
2022-10-18T12:50:34.996Z,70.70
2022-10-18T12:53:03.379Z,71.00
2022-10-18T12:55:54.068Z,70.50
2022-10-18T12:58:23.497Z,70.60
2022-10-18T13:00:50.523Z,70.60
2022-10-18T13:03:18.032Z,70.80
2022-10-18T13:05:55.862Z,70.20
2022-10-18T13:08:35.170Z,69.20
2022-10-18T13:11:02.083Z,68.80
2022-10-18T13:13:51.099Z,68.30
2022-10-18T13:16:22.196Z,68.40
2022-10-18T13:18:59.869Z,68.60
2022-10-18T13:21:58.985Z,68.60
2022-10-18T13:25:06.837Z,68.40
2022-10-18T13:27:53.146Z,68.60
2022-10-18T13:30:48.112Z,68.60
2022-10-18T13:33:40.433Z,68.30
2022-10-18T13:36:24.952Z,68.50
2022-10-18T13:38:57.809Z,68.50
2022-10-18T13:41:32.698Z,68.90
2022-10-18T13:44:24.467Z,69.00
2022-10-18T13:46:54.324Z,68.80
2022-10-18T13:49:39.187Z,67.70
2022-10-18T13:52:21.144Z,67.60
2022-10-18T13:55:24.643Z,67.80
2022-10-18T13:58:11.179Z,67.70
2022-10-18T14:00:56.372Z,67.40
2022-10-18T14:04:14.425Z,66.60
2022-10-18T14:06:44.300Z,66.70
2022-10-18T14:09:40.286Z,67.00
2022-10-18T14:12:16.811Z,67.00
2022-10-18T14:14:47.935Z,66.70
2022-10-18T14:17:52.884Z,66.40
2022-10-18T14:20:30.582Z,66.40
2022-10-18T14:23:09.476Z,66.70
2022-10-18T14:25:38.203Z,66.70
2022-10-18T14:28:13.171Z,66.70
2022-10-18T14:30:58.106Z,66.80
2022-10-18T14:33:36.917Z,66.80
2022-10-18T14:36:39.946Z,66.70
2022-10-18T14:39:16.510Z,66.80
2022-10-18T14:41:54.626Z,66.60
2022-10-18T14:44:29.098Z,66.10
2022-10-18T14:46:59.062Z,66.20
2022-10-18T14:49:26.637Z,66.30
2022-10-18T14:51:56.687Z,66.10
2022-10-18T14:54:31.571Z,65.90
2022-10-18T14:57:03.326Z,65.80
2022-10-18T14:59:34.807Z,65.80
2022-10-18T15:02:07.743Z,66.10
2022-10-18T15:04:34.789Z,66.30
2022-10-18T15:07:07.316Z,66.70
2022-10-18T15:09:36.364Z,67.00
2022-10-18T15:12:06.571Z,67.10
2022-10-18T15:14:34.811Z,67.10
2022-10-18T15:17:22.327Z,67.10
2022-10-18T15:19:59.329Z,67.30
2022-10-18T15:22:32.371Z,67.40
2022-10-18T15:25:06.015Z,67.40
2022-10-18T15:27:36.795Z,67.50
2022-10-18T15:30:29.299Z,67.70
2022-10-18T15:32:59.828Z,67.90
2022-10-18T15:35:28.921Z,68.10
2022-10-18T15:38:04.336Z,68.10
2022-10-18T15:40:35.032Z,68.00
2022-10-18T15:43:28.482Z,68.00
2022-10-18T15:46:05.048Z,68.10
2022-10-18T15:48:35.683Z,68.20
2022-10-18T15:51:05.349Z,68.40
2022-10-18T15:53:52.823Z,68.50
2022-10-18T15:56:35.419Z,68.60
2022-10-18T15:59:06.171Z,68.80
2022-10-18T16:01:35.824Z,68.80
2022-10-18T16:04:09.175Z,69.00
2022-10-18T16:06:38.615Z,69.10
2022-10-18T16:09:06.008Z,69.30
2022-10-18T16:11:33.075Z,69.40
2022-10-18T16:14:00.662Z,69.50
2022-10-18T16:16:29.256Z,69.60
2022-10-18T16:18:56.691Z,69.80
2022-10-18T16:21:28.656Z,70.00
2022-10-18T16:23:56.068Z,70.20
2022-10-18T16:26:24.334Z,70.40
2022-10-18T16:28:51.614Z,70.50
2022-10-18T16:31:21.237Z,70.60
2022-10-18T16:33:49.894Z,70.70
2022-10-18T16:36:23.802Z,70.90
2022-10-18T16:38:51.579Z,71.00
2022-10-18T16:41:18.755Z,71.10
2022-10-18T16:43:47.453Z,71.30
2022-10-18T16:46:20.804Z,71.40
2022-10-18T16:48:49.258Z,71.60
2022-10-18T16:51:16.922Z,71.70
2022-10-18T16:53:44.300Z,71.80
2022-10-18T16:56:30.468Z,71.80
2022-10-18T16:58:58.381Z,71.90
2022-10-18T17:01:26.446Z,72.00
2022-10-18T17:03:54.143Z,72.00
2022-10-18T17:06:24.271Z,72.10
2022-10-18T17:08:52.333Z,72.20
2022-10-18T17:11:20.728Z,72.20
2022-10-18T17:13:48.018Z,72.30
2022-10-18T17:16:30.278Z,72.40
2022-10-18T17:18:59.691Z,72.60
2022-10-18T17:21:29.297Z,72.80
2022-10-18T17:24:00.615Z,72.80
2022-10-18T17:26:29.235Z,72.80
2022-10-18T17:29:00.205Z,73.00
2022-10-18T17:31:28.550Z,73.20
2022-10-18T17:33:55.621Z,73.40
2022-10-18T17:36:23.057Z,73.60
2022-10-18T17:38:51.735Z,73.60
2022-10-18T17:41:19.018Z,73.70
2022-10-18T17:43:46.035Z,73.80
2022-10-18T17:46:14.338Z,73.80
2022-10-18T17:48:42.298Z,73.90
2022-10-18T17:51:11.594Z,73.90
2022-10-18T17:53:39.230Z,73.90
2022-10-18T17:56:07.842Z,74.10
2022-10-18T17:58:34.936Z,74.30
2022-10-18T18:01:11.842Z,74.60
2022-10-18T18:03:38.939Z,74.70
2022-10-18T18:06:17.562Z,74.90
2022-10-18T18:08:45.347Z,75.10
2022-10-18T18:11:12.390Z,75.30
2022-10-18T18:13:39.604Z,75.50
2022-10-18T18:16:16.310Z,75.60
2022-10-18T18:18:43.664Z,75.60
2022-10-18T18:21:11.225Z,75.60
2022-10-18T18:23:38.720Z,75.60
2022-10-18T18:26:06.354Z,75.70
2022-10-18T18:28:34.843Z,75.70
2022-10-18T18:31:14.070Z,75.80
2022-10-18T18:33:41.703Z,76.00
2022-10-18T18:36:09.533Z,76.20
2022-10-18T18:38:38.867Z,76.50
2022-10-18T18:41:07.464Z,76.70
2022-10-18T18:43:35.248Z,76.90
2022-10-18T18:46:02.668Z,77.00
2022-10-18T18:48:32.202Z,77.10
2022-10-18T18:50:59.389Z,77.20
2022-10-18T18:53:29.507Z,77.20
2022-10-18T18:56:10.784Z,77.30
2022-10-18T18:58:39.359Z,77.30
2022-10-18T19:01:22.113Z,77.40
2022-10-18T19:03:52.019Z,77.40
2022-10-18T19:06:31.049Z,77.40
2022-10-18T19:09:04.082Z,77.40
2022-10-18T19:11:37.840Z,77.40
2022-10-18T19:14:07.118Z,77.40
2022-10-18T19:16:38.585Z,77.30
2022-10-18T19:19:12.654Z,77.20
2022-10-18T19:21:42.834Z,77.20
2022-10-18T19:24:10.016Z,77.10
2022-10-18T19:26:45.372Z,77.20
2022-10-18T19:29:15.043Z,77.30
2022-10-18T19:31:42.420Z,77.30
2022-10-18T19:34:11.931Z,77.20
2022-10-18T19:36:41.020Z,77.20
2022-10-18T19:39:10.006Z,77.20
2022-10-18T19:41:37.028Z,77.20
2022-10-18T19:44:04.022Z,77.20
2022-10-18T19:46:30.981Z,77.20
2022-10-18T19:48:58.687Z,77.20
2022-10-18T19:51:28.347Z,77.20
2022-10-18T19:53:56.684Z,77.20
2022-10-18T19:56:25.637Z,77.20
2022-10-18T19:58:53.273Z,77.20
2022-10-18T20:01:20.260Z,77.20
2022-10-18T20:03:47.926Z,77.30
2022-10-18T20:06:15.535Z,77.20
2022-10-18T20:11:21.044Z,77.30
2022-10-18T20:13:48.474Z,77.20
2022-10-18T20:16:17.398Z,77.20
2022-10-18T20:18:44.659Z,77.20
2022-10-18T20:21:13.909Z,77.20
2022-10-18T20:23:42.802Z,77.20
2022-10-18T20:26:18.089Z,77.20
2022-10-18T20:28:49.117Z,77.20
2022-10-18T20:31:19.695Z,77.30
2022-10-18T20:33:48.101Z,77.30
2022-10-18T20:36:17.336Z,77.30
2022-10-18T20:38:46.349Z,77.40
2022-10-18T20:41:14.656Z,77.40
2022-10-18T20:43:41.997Z,77.40
2022-10-18T20:46:09.934Z,77.40
2022-10-18T20:48:38.758Z,77.50
2022-10-18T20:51:12.705Z,77.50
2022-10-18T20:53:40.394Z,77.50
2022-10-18T20:56:13.068Z,77.60
2022-10-18T20:58:41.879Z,77.60
2022-10-18T21:01:28.907Z,77.60
2022-10-18T21:03:57.870Z,77.70
2022-10-18T21:06:34.076Z,77.70
2022-10-18T21:09:07.278Z,77.70
2022-10-18T21:11:39.444Z,77.80
2022-10-18T21:14:07.875Z,77.90
2022-10-18T21:16:35.588Z,77.90
2022-10-18T21:19:08.146Z,77.90
2022-10-18T21:21:35.273Z,77.90
2022-10-18T21:24:05.467Z,77.90
2022-10-18T21:26:35.366Z,78.00
2022-10-18T21:29:03.650Z,77.90
2022-10-18T21:31:33.047Z,78.00
2022-10-18T21:34:02.837Z,78.00
2022-10-18T21:36:36.026Z,78.00
2022-10-18T21:39:04.502Z,78.00
2022-10-18T21:41:32.082Z,78.00
2022-10-18T21:43:59.147Z,78.00
2022-10-18T21:46:27.055Z,78.10
2022-10-18T21:48:55.564Z,78.10
2022-10-18T21:51:26.099Z,78.10
2022-10-18T21:53:55.755Z,78.10
2022-10-18T21:56:28.767Z,78.10
2022-10-18T21:58:56.702Z,78.10
2022-10-18T22:01:26.686Z,78.10
2022-10-18T22:03:56.539Z,78.10
2022-10-18T22:06:24.410Z,78.10
2022-10-18T22:08:56.151Z,78.20
2022-10-18T22:11:26.707Z,78.20
2022-10-18T22:13:54.142Z,78.20
2022-10-18T22:16:21.143Z,78.20
2022-10-18T22:18:48.938Z,78.20
2022-10-18T22:21:17.233Z,78.30
2022-10-18T22:23:46.963Z,78.30
2022-10-18T22:26:19.762Z,78.30
2022-10-18T22:28:46.877Z,78.30
2022-10-18T22:31:18.835Z,78.30
2022-10-18T22:33:46.696Z,78.30
2022-10-18T22:36:14.132Z,78.40
2022-10-18T22:38:41.087Z,78.40
2022-10-18T22:41:10.181Z,78.40
2022-10-18T22:43:37.577Z,78.40
2022-10-18T22:46:09.259Z,78.40
2022-10-18T22:48:36.744Z,78.50
2022-10-18T22:51:04.601Z,78.40
2022-10-18T22:53:32.540Z,78.40
2022-10-18T22:55:59.616Z,78.40
2022-10-18T22:58:26.909Z,78.50
2022-10-18T23:01:07.063Z,78.50
2022-10-18T23:03:34.795Z,78.60
2022-10-18T23:06:01.867Z,78.60
2022-10-18T23:08:29.323Z,78.60
2022-10-18T23:10:58.369Z,78.60
2022-10-18T23:13:26.711Z,78.70
2022-10-18T23:15:53.823Z,78.70
2022-10-18T23:18:20.767Z,78.80
2022-10-18T23:20:47.671Z,78.80
2022-10-18T23:23:14.635Z,78.80
2022-10-18T23:25:41.544Z,78.80
2022-10-18T23:28:08.493Z,78.80
2022-10-18T23:30:38.099Z,78.80
2022-10-18T23:33:05.055Z,78.80
2022-10-18T23:35:31.975Z,78.80
2022-10-18T23:37:58.943Z,78.90
2022-10-18T23:40:25.835Z,78.80
2022-10-18T23:42:52.799Z,78.80
2022-10-18T23:45:19.731Z,78.80
2022-10-18T23:47:46.678Z,78.80
2022-10-18T23:50:13.564Z,78.90
2022-10-18T23:52:40.525Z,78.90
2022-10-18T23:55:08.082Z,78.90
2022-10-18T23:57:35.317Z,78.90
